Back to Top

Language: 

My Weather Underground Personal Weather Station Historical Data with Graphs...

Delerius Weather Station Historical Data
Daily Summary for February 16, 2017 Units:  Metric    English   Both
« Previous Day
Next Day »
Daily Weekly Monthly Yearly Custom
  High: Low: Average:
Temperature: 11.1 °C 6.1 °C 8.2 °C
Dew Point: 6.7 °C 3.7 °C 5.5 °C
Humidity: 90 % 73 % 84 %
Wind Speed: 27.4 km/h 0 km/h 13.4 km/h
Wind Gust: 38.6 km/h - -
Wind:- - West
Pressure: 1025.6 hPa 1023.6 hPa -
Precipitation: 0 mm    
Historical Graphs
 
 
Tabular Data for February 16, 2017
Time Temperature Dew Point Pressure Wind Wind Speed Wind Gust Humidity Rainfall Rate (Hourly) solar Conditions
00:05 8.3 °C 6.7 °C 1024.6 hPa SW 8 km/h 19.3 km/h 90 % 0 mm 0 W/m2
00:15 8.4 °C 6.7 °C 1024.6 hPa SW 14.5 km/h 14.5 km/h 89 % 0 mm 0 W/m2
00:25 8.6 °C 6.6 °C 1024.6 hPa West 16.1 km/h 19.3 km/h 87 % 0 mm 0 W/m2
00:30 8.6 °C 6.6 °C 1024.6 hPa WSW 16.1 km/h 22.5 km/h 87 % 0 mm 0 W/m2
00:40 8.7 °C 6.6 °C 1024.6 hPa WSW 17.7 km/h 17.7 km/h 87 % 0 mm 0 W/m2
00:45 8.6 °C 6.6 °C 1024.6 hPa WSW 12.9 km/h 17.7 km/h 87 % 0 mm 0 W/m2
00:55 8.5 °C 6.6 °C 1024.6 hPa West 12.9 km/h 25.7 km/h 88 % 0 mm 0 W/m2
01:00 8.6 °C 6.7 °C 1024.6 hPa West 16.1 km/h 16.1 km/h 88 % 0 mm 0 W/m2
01:05 8.6 °C 6.5 °C 1024.6 hPa WSW 16.1 km/h 19.3 km/h 87 % 0 mm 0 W/m2
01:15 8.5 °C 6.4 °C 1024.9 hPa WSW 14.5 km/h 20.9 km/h 87 % 0 mm 0 W/m2
01:20 8.5 °C 6.4 °C 1024.9 hPa West 14.5 km/h 19.3 km/h 87 % 0 mm 0 W/m2
01:25 8.4 °C 6.5 °C 1024.9 hPa West 12.9 km/h 22.5 km/h 88 % 0 mm 0 W/m2
01:35 8.3 °C 6.4 °C 1024.6 hPa West 14.5 km/h 19.3 km/h 88 % 0 mm 0 W/m2
01:40 8.3 °C 6.4 °C 1024.9 hPa West 14.5 km/h 19.3 km/h 88 % 0 mm 0 W/m2
01:50 8.3 °C 6.3 °C 1024.9 hPa WSW 14.5 km/h 19.3 km/h 87 % 0 mm 0 W/m2
01:55 8.3 °C 6.3 °C 1024.9 hPa WSW 12.9 km/h 19.3 km/h 87 % 0 mm 0 W/m2
02:05 8.3 °C 6.1 °C 1024.9 hPa WNW 12.9 km/h 19.3 km/h 86 % 0 mm 0 W/m2
02:10 8.2 °C 6 °C 1024.9 hPa SW 12.9 km/h 12.9 km/h 86 % 0 mm 0 W/m2
02:15 8.2 °C 6 °C 1024.9 hPa WNW 11.3 km/h 19.3 km/h 86 % 0 mm 0 W/m2
02:20 8.1 °C 5.9 °C 1024.9 hPa WNW 8 km/h 19.3 km/h 86 % 0 mm 0 W/m2
02:35 7.9 °C 5.6 °C 1024.9 hPa West 6.4 km/h 19.3 km/h 85 % 0 mm 0 W/m2
02:40 7.9 °C 5.7 °C 1025.3 hPa West 4.8 km/h 4.8 km/h 86 % 0 mm 0 W/m2
02:45 7.8 °C 5.6 °C 1024.9 hPa West 4.8 km/h 19.3 km/h 86 % 0 mm 0 W/m2
02:55 7.7 °C 5.5 °C 1024.9 hPa West 4.8 km/h 19.3 km/h 86 % 0 mm 0 W/m2
03:00 7.7 °C 5.5 °C 1024.9 hPa WSW 4.8 km/h 4.8 km/h 86 % 0 mm 0 W/m2
03:05 7.6 °C 5.4 °C 1024.9 hPa West 1.6 km/h 19.3 km/h 86 % 0 mm 0 W/m2
03:15 7.3 °C 5.3 °C 1024.9 hPa Calm   19.3 km/h 87 % 0 mm 0 W/m2
03:20 7.2 °C 5.2 °C 1024.9 hPa Calm   19.3 km/h 87 % 0 mm 0 W/m2
03:25 7.1 °C 5.3 °C 1024.9 hPa Calm   19.3 km/h 88 % 0 mm 0 W/m2
03:30 7 °C 5.2 °C 1024.9 hPa West 1.6 km/h 19.3 km/h 88 % 0 mm 0 W/m2
03:35 7 °C 5.2 °C 1024.9 hPa West 3.2 km/h 19.3 km/h 88 % 0 mm 0 W/m2
03:45 7 °C 5.2 °C 1024.9 hPa SW 4.8 km/h 19.3 km/h 88 % 0 mm 0 W/m2
03:50 7.1 °C 5.3 °C 1024.9 hPa SW 8 km/h 8 km/h 88 % 0 mm 0 W/m2
04:00 7.3 °C 5.2 °C 1025.3 hPa SSW 8 km/h 8 km/h 86 % 0 mm 0 W/m2
04:10 7.4 °C 5.1 °C 1024.9 hPa SW 6.4 km/h 6.4 km/h 85 % 0 mm 0 W/m2
04:15 7.4 °C 5.1 °C 1025.3 hPa SW 4.8 km/h 19.3 km/h 85 % 0 mm 0 W/m2
04:20 7.3 °C 5 °C 1025.3 hPa SSW 3.2 km/h 3.2 km/h 85 % 0 mm 0 W/m2
04:30 7.2 °C 5 °C 1025.3 hPa SSW 1.6 km/h 19.3 km/h 86 % 0 mm 0 W/m2
04:35 7.1 °C 4.9 °C 1024.9 hPa WSW 4.8 km/h 19.3 km/h 86 % 0 mm 0 W/m2
04:40 7.1 °C 4.9 °C 1024.9 hPa WSW 4.8 km/h 19.3 km/h 86 % 0 mm 0 W/m2
04:45 7.1 °C 4.9 °C 1025.3 hPa WSW 6.4 km/h 19.3 km/h 86 % 0 mm 0 W/m2
04:55 7.1 °C 4.9 °C 1025.3 hPa WSW 11.3 km/h 19.3 km/h 86 % 0 mm 0 W/m2
05:00 7.1 °C 4.9 °C 1024.9 hPa West 6.4 km/h 6.4 km/h 86 % 0 mm 0 W/m2
05:10 6.9 °C 4.7 °C 1024.9 hPa SSW 6.4 km/h 6.4 km/h 86 % 0 mm 0 W/m2
05:15 6.8 °C 4.7 °C 1025.3 hPa West 6.4 km/h 8 km/h 86 % 0 mm 0 W/m2
05:20 6.8 °C 4.6 °C 1025.3 hPa SW 3.2 km/h 19.3 km/h 86 % 0 mm 0 W/m2
05:25 6.7 °C 4.6 °C 1025.3 hPa SW 4.8 km/h 19.3 km/h 86 % 0 mm 0 W/m2
05:35 6.7 °C 4.5 °C 1024.9 hPa WSW 6.4 km/h 19.3 km/h 86 % 0 mm 0 W/m2
05:40 6.6 °C 4.4 °C 1024.9 hPa WSW 8 km/h 19.3 km/h 86 % 0 mm 0 W/m2
05:45 6.6 °C 4.2 °C 1024.9 hPa WNW 6.4 km/h 19.3 km/h 85 % 0 mm 0 W/m2
05:50 6.6 °C 4.3 °C 1025.3 hPa West 9.7 km/h 19.3 km/h 85 % 0 mm 0 W/m2
06:00 6.6 °C 4.3 °C 1024.9 hPa West 11.3 km/h 11.3 km/h 85 % 0 mm 0 W/m2
06:05 6.6 °C 4.2 °C 1025.3 hPa WNW 9.7 km/h 19.3 km/h 85 % 0 mm 0 W/m2
06:10 6.5 °C 4.2 °C 1025.3 hPa West 6.4 km/h 19.3 km/h 85 % 0 mm 0 W/m2
06:15 6.4 °C 4.1 °C 1025.3 hPa WSW 8 km/h 19.3 km/h 85 % 0 mm 0 W/m2
06:25 6.4 °C 4.1 °C 1025.3 hPa West 8 km/h 19.3 km/h 85 % 0 mm 0 W/m2
06:30 6.4 °C 4.1 °C 1025.3 hPa SW 8 km/h 8 km/h 85 % 0 mm 0 W/m2
06:35 6.4 °C 4.1 °C 1024.9 hPa SW 8 km/h 11.3 km/h 85 % 0 mm 0 W/m2
06:45 6.5 °C 4 °C 1024.9 hPa SSW 11.3 km/h 19.3 km/h 84 % 0 mm 0 W/m2
06:50 6.6 °C 4.1 °C 1024.9 hPa SW 12.9 km/h 12.9 km/h 84 % 0 mm 0 W/m2
06:55 6.5 °C 4 °C 1024.9 hPa WSW 9.7 km/h 19.3 km/h 84 % 0 mm 0 W/m2
07:00 6.4 °C 3.9 °C 1025.3 hPa SW 9.7 km/h 19.3 km/h 84 % 0 mm 0 W/m2
07:10 6.3 °C 3.8 °C 1025.3 hPa SW 9.7 km/h 19.3 km/h 84 % 0 mm 0 W/m2
07:15 6.3 °C 3.8 °C 1024.9 hPa SW 12.9 km/h 19.3 km/h 84 % 0 mm 0 W/m2
07:25 6.2 °C 3.7 °C 1025.3 hPa West 9.7 km/h 19.3 km/h 84 % 0 mm 5 W/m2
07:30 6.2 °C 3.7 °C 1024.9 hPa WSW 9.7 km/h 19.3 km/h 84 % 0 mm 7 W/m2
07:40 6.1 °C 3.8 °C 1025.3 hPa WSW 9.7 km/h 19.3 km/h 85 % 0 mm 16 W/m2
07:45 6.2 °C 3.7 °C 1025.3 hPa SW 11.3 km/h 19.3 km/h 84 % 0 mm 25 W/m2
07:55 6.3 °C 3.8 °C 1025.3 hPa WSW 11.3 km/h 19.3 km/h 84 % 0 mm 58 W/m2
08:00 6.6 °C 4.1 °C 1025.3 hPa SW 12.9 km/h 19.3 km/h 84 % 0 mm 81 W/m2
08:10 6.9 °C 4.4 °C 1025.3 hPa WNW 12.9 km/h 19.3 km/h 84 % 0 mm 111 W/m2
08:15 7 °C 4.3 °C 1025.6 hPa West 12.9 km/h 19.3 km/h 83 % 0 mm 121 W/m2
08:20 7.2 °C 4.3 °C 1025.6 hPa West 14.5 km/h 14.5 km/h 82 % 0 mm 128 W/m2
08:30 7.5 °C 4.4 °C 1025.6 hPa West 14.5 km/h 24.1 km/h 81 % 0 mm 142 W/m2
08:35 7.6 °C 4.6 °C 1025.6 hPa WSW 17.7 km/h 24.1 km/h 81 % 0 mm 72 W/m2
08:40 7.7 °C 4.6 °C 1025.6 hPa WSW 19.3 km/h 19.3 km/h 81 % 0 mm 70 W/m2
08:50 7.8 °C 4.7 °C 1025.6 hPa West 14.5 km/h 14.5 km/h 81 % 0 mm 188 W/m2
08:55 7.8 °C 4.8 °C 1025.6 hPa SW 14.5 km/h 19.3 km/h 81 % 0 mm 213 W/m2
09:00 8 °C 5.1 °C 1025.6 hPa WSW 14.5 km/h 19.3 km/h 82 % 0 mm 193 W/m2
09:10 8.1 °C 5.1 °C 1025.6 hPa West 17.7 km/h 19.3 km/h 81 % 0 mm 232 W/m2
09:15 8.1 °C 5.1 °C 1025.6 hPa WSW 17.7 km/h 22.5 km/h 81 % 0 mm 229 W/m2
09:20 8.2 °C 5.2 °C 1025.6 hPa West 16.1 km/h 16.1 km/h 81 % 0 mm 264 W/m2
09:25 8.3 °C 5.2 °C 1025.6 hPa WSW 14.5 km/h 24.1 km/h 81 % 0 mm 121 W/m2
09:30 8.2 °C 4.9 °C 1025.6 hPa WSW 16.1 km/h 20.9 km/h 80 % 0 mm 118 W/m2
09:40 8 °C 4.8 °C 1025.6 hPa West 16.1 km/h 19.3 km/h 80 % 0 mm 60 W/m2
09:45 7.9 °C 4.7 °C 1025.6 hPa WSW 17.7 km/h 19.3 km/h 80 % 0 mm 56 W/m2
09:50 7.8 °C 4.7 °C 1025.6 hPa SW 16.1 km/h 16.1 km/h 81 % 0 mm 62 W/m2
10:00 7.7 °C 4.8 °C 1025.6 hPa West 12.9 km/h 12.9 km/h 82 % 0 mm 141 W/m2
10:05 7.8 °C 4.9 °C 1025.6 hPa SW 12.9 km/h 17.7 km/h 82 % 0 mm 195 W/m2
10:10 7.9 °C 4.8 °C 1025.3 hPa SW 12.9 km/h 12.9 km/h 81 % 0 mm 139 W/m2
10:20 8.1 °C 5 °C 1025.3 hPa SW 12.9 km/h 19.3 km/h 81 % 0 mm 107 W/m2
10:25 8.1 °C 5 °C 1025.3 hPa WSW 14.5 km/h 19.3 km/h 81 % 0 mm 95 W/m2
10:30 8.1 °C 5.1 °C 1025.3 hPa West 14.5 km/h 14.5 km/h 81 % 0 mm 77 W/m2
10:40 8.1 °C 5.1 °C 1025.3 hPa WSW 12.9 km/h 19.3 km/h 81 % 0 mm 74 W/m2
10:45 8.2 °C 5.2 °C 1025.3 hPa West 12.9 km/h 22.5 km/h 81 % 0 mm 76 W/m2
10:50 8.2 °C 5.2 °C 1025.6 hPa SW 14.5 km/h 19.3 km/h 81 % 0 mm 81 W/m2
11:00 8.3 °C 5.3 °C 1025.3 hPa West 16.1 km/h 24.1 km/h 81 % 0 mm 107 W/m2
11:10 8.4 °C 5.2 °C 1025.3 hPa West 16.1 km/h 22.5 km/h 80 % 0 mm 134 W/m2
11:15 8.5 °C 5.2 °C 1025.3 hPa SW 17.7 km/h 22.5 km/h 80 % 0 mm 127 W/m2
11:20 8.6 °C 5.3 °C 1025.3 hPa SW 16.1 km/h 24.1 km/h 80 % 0 mm 120 W/m2
11:25 8.6 °C 5.3 °C 1025.3 hPa WSW 17.7 km/h 32.2 km/h 80 % 0 mm 135 W/m2
11:35 8.7 °C 5.4 °C 1025.3 hPa West 19.3 km/h 19.3 km/h 80 % 0 mm 171 W/m2
11:40 8.8 °C 5.5 °C 1025.3 hPa WSW 17.7 km/h 17.7 km/h 80 % 0 mm 174 W/m2
11:50 8.9 °C 5.7 °C 1024.9 hPa West 17.7 km/h 17.7 km/h 80 % 0 mm 155 W/m2
11:55 9.1 °C 5.6 °C 1024.9 hPa West 17.7 km/h 19.3 km/h 79 % 0 mm 244 W/m2
12:00 9.2 °C 5.8 °C 1024.9 hPa WNW 19.3 km/h 20.9 km/h 79 % 0 mm 218 W/m2
12:10 9.6 °C 5.9 °C 1024.6 hPa SW 19.3 km/h 19.3 km/h 78 % 0 mm 253 W/m2
12:15 9.8 °C 5.9 °C 1024.6 hPa WSW 20.9 km/h 20.9 km/h 77 % 0 mm 294 W/m2
12:20 9.8 °C 6 °C 1024.9 hPa WSW 22.5 km/h 22.5 km/h 77 % 0 mm 221 W/m2
12:25 9.8 °C 6 °C 1024.9 hPa WNW 24.1 km/h 24.1 km/h 77 % 0 mm 304 W/m2
12:30 9.9 °C 6.1 °C 1024.9 hPa WNW 24.1 km/h 24.1 km/h 77 % 0 mm 422 W/m2
12:40 9.9 °C 6.1 °C 1024.6 hPa West 24.1 km/h 24.1 km/h 77 % 0 mm 234 W/m2
12:45 9.9 °C 6.1 °C 1024.6 hPa SW 22.5 km/h 24.1 km/h 77 % 0 mm 301 W/m2
12:50 9.9 °C 5.9 °C 1024.6 hPa WSW 24.1 km/h 35.4 km/h 76 % 0 mm 313 W/m2
12:55 10.1 °C 6 °C 1024.6 hPa SW 25.7 km/h 35.4 km/h 76 % 0 mm 404 W/m2
13:05 10.2 °C 6.2 °C 1024.6 hPa WSW 22.5 km/h 24.1 km/h 76 % 0 mm 415 W/m2
13:10 10.3 °C 6.3 °C 1024.3 hPa West 24.1 km/h 25.7 km/h 76 % 0 mm 482 W/m2
13:15 10.6 °C 6.6 °C 1024.3 hPa West 24.1 km/h 25.7 km/h 76 % 0 mm 468 W/m2
13:35 11.1 °C 6.6 °C 1023.9 hPa SW 27.4 km/h 35.4 km/h 74 % 0 mm 454 W/m2
13:45 10.9 °C 6.5 °C 1023.9 hPa WSW 24.1 km/h 38.6 km/h 74 % 0 mm 244 W/m2
13:50 10.7 °C 6.4 °C 1023.6 hPa West 22.5 km/h 22.5 km/h 75 % 0 mm 239 W/m2
13:55 10.5 °C 6.4 °C 1023.9 hPa WSW 19.3 km/h 25.7 km/h 76 % 0 mm 190 W/m2
14:05 10.3 °C 6.2 °C 1023.9 hPa West 20.9 km/h 25.7 km/h 76 % 0 mm 81 W/m2
14:10 10.2 °C 6.1 °C 1023.9 hPa West 20.9 km/h 20.9 km/h 76 % 0 mm 67 W/m2
14:20 10 °C 6.2 °C 1023.9 hPa West 17.7 km/h 17.7 km/h 77 % 0 mm 21 W/m2
14:25 9.9 °C 6.2 °C 1023.9 hPa West 16.1 km/h 19.3 km/h 78 % 0 mm 23 W/m2
14:30 9.8 °C 6.2 °C 1023.9 hPa West 14.5 km/h 14.5 km/h 78 % 0 mm 19 W/m2
14:40 9.8 °C 6.3 °C 1023.9 hPa WSW 9.7 km/h 9.7 km/h 79 % 0 mm 44 W/m2
14:45 9.7 °C 6.3 °C 1023.9 hPa West 8 km/h 14.5 km/h 79 % 0 mm 54 W/m2
14:50 9.7 °C 6.3 °C 1023.9 hPa WSW 11.3 km/h 11.3 km/h 79 % 0 mm 63 W/m2
15:00 9.7 °C 6.2 °C 1023.9 hPa West 12.9 km/h 12.9 km/h 79 % 0 mm 53 W/m2
15:05 9.6 °C 5.6 °C 1023.9 hPa WNW 16.1 km/h 16.1 km/h 76 % 0 mm 28 W/m2
15:10 9.6 °C 5.3 °C 1023.9 hPa West 17.7 km/h 19.3 km/h 75 % 0 mm 35 W/m2
15:15 9.5 °C 5.3 °C 1023.9 hPa West 19.3 km/h 30.6 km/h 75 % 0 mm 47 W/m2
15:25 9.6 °C 5.2 °C 1023.9 hPa West 20.9 km/h 20.9 km/h 74 % 0 mm 46 W/m2
15:30 9.6 °C 4.9 °C 1023.9 hPa WNW 20.9 km/h 20.9 km/h 73 % 0 mm 51 W/m2
15:40 9.5 °C 5.1 °C 1024.3 hPa West 19.3 km/h 20.9 km/h 74 % 0 mm 28 W/m2
15:45 9.5 °C 5.3 °C 1024.3 hPa West 19.3 km/h 20.9 km/h 75 % 0 mm 21 W/m2
15:50 9.4 °C 5.4 °C 1024.3 hPa WNW 20.9 km/h 25.7 km/h 76 % 0 mm 21 W/m2
15:55 9.3 °C 5.5 °C 1024.3 hPa WNW 22.5 km/h 32.2 km/h 77 % 0 mm 23 W/m2
16:05 9.2 °C 5.7 °C 1023.9 hPa WSW 20.9 km/h 24.1 km/h 79 % 0 mm 21 W/m2
16:10 9.1 °C 5.8 °C 1024.3 hPa WSW 20.9 km/h 20.9 km/h 80 % 0 mm 25 W/m2
16:15 8.9 °C 5.7 °C 1024.3 hPa West 19.3 km/h 20.9 km/h 80 % 0 mm 23 W/m2
16:20 8.8 °C 5.6 °C 1024.3 hPa SW 17.7 km/h 17.7 km/h 80 % 0 mm 19 W/m2
16:25 8.7 °C 5.4 °C 1024.3 hPa West 17.7 km/h 19.3 km/h 80 % 0 mm 16 W/m2
16:35 8.5 °C 5.4 °C 1024.3 hPa WSW 11.3 km/h 19.3 km/h 81 % 0 mm 14 W/m2
16:40 8.4 °C 5.3 °C 1024.3 hPa WSW 9.7 km/h 19.3 km/h 81 % 0 mm 14 W/m2
16:45 8.3 °C 5.3 °C 1024.3 hPa West 11.3 km/h 19.3 km/h 81 % 0 mm 11 W/m2
16:55 8.2 °C 5.3 °C 1024.6 hPa West 9.7 km/h 19.3 km/h 82 % 0 mm 7 W/m2
17:00 8.1 °C 5.2 °C 1024.3 hPa West 8 km/h 8 km/h 82 % 0 mm 7 W/m2
17:10 8 °C 5.1 °C 1024.3 hPa West 8 km/h 8 km/h 82 % 0 mm 5 W/m2
17:15 8 °C 5.1 °C 1024.3 hPa WSW 9.7 km/h 9.7 km/h 82 % 0 mm 0 W/m2
17:20 8.1 °C 5.2 °C 1024.6 hPa West 9.7 km/h 9.7 km/h 82 % 0 mm 0 W/m2
17:30 8.4 °C 5.5 °C 1024.6 hPa WSW 17.7 km/h 17.7 km/h 82 % 0 mm 0 W/m2
17:35 8.4 °C 5.6 °C 1024.6 hPa West 16.1 km/h 19.3 km/h 82 % 0 mm 0 W/m2
17:40 8.5 °C 5.4 °C 1024.6 hPa West 17.7 km/h 17.7 km/h 81 % 0 mm 0 W/m2
17:45 8.5 °C 5.4 °C 1024.6 hPa WNW 17.7 km/h 19.3 km/h 81 % 0 mm 0 W/m2
17:55 8.4 °C 5.4 °C 1024.6 hPa WNW 12.9 km/h 19.3 km/h 81 % 0 mm 0 W/m2
18:00 8.4 °C 5.3 °C 1024.6 hPa WNW 12.9 km/h 19.3 km/h 81 % 0 mm 0 W/m2
18:05 8.3 °C 5.2 °C 1024.9 hPa West 14.5 km/h 22.5 km/h 81 % 0 mm 0 W/m2
18:10 8.2 °C 5.2 °C 1024.6 hPa West 16.1 km/h 19.3 km/h 81 % 0 mm 0 W/m2
18:20 8.2 °C 5.1 °C 1024.9 hPa West 16.1 km/h 29 km/h 81 % 0 mm 0 W/m2
18:25 8.3 °C 5.2 °C 1024.9 hPa West 19.3 km/h 29 km/h 81 % 0 mm 0 W/m2
18:30 8.3 °C 5.3 °C 1024.9 hPa WSW 22.5 km/h 32.2 km/h 81 % 0 mm 0 W/m2
18:40 8.2 °C 5.4 °C 1024.9 hPa West 20.9 km/h 29 km/h 83 % 0 mm 0 W/m2
18:45 8 °C 5.4 °C 1024.6 hPa WNW 22.5 km/h 29 km/h 84 % 0 mm 0 W/m2
18:50 7.9 °C 5.6 °C 1024.6 hPa WSW 20.9 km/h 20.9 km/h 85 % 0 mm 0 W/m2
19:00 7.8 °C 5.6 °C 1024.6 hPa WSW 17.7 km/h 19.3 km/h 86 % 0 mm 0 W/m2
19:05 7.9 °C 5.7 °C 1024.6 hPa WSW 16.1 km/h 19.3 km/h 86 % 0 mm 0 W/m2
19:10 7.9 °C 5.7 °C 1024.6 hPa West 14.5 km/h 19.3 km/h 86 % 0 mm 0 W/m2
19:20 7.9 °C 5.6 °C 1024.9 hPa West 14.5 km/h 14.5 km/h 85 % 0 mm 0 W/m2
19:25 7.9 °C 5.6 °C 1024.9 hPa WSW 11.3 km/h 16.1 km/h 85 % 0 mm 0 W/m2
19:35 8 °C 5.6 °C 1024.9 hPa SW 12.9 km/h 19.3 km/h 85 % 0 mm 0 W/m2
19:45 8 °C 5.9 °C 1024.9 hPa WSW 11.3 km/h 19.3 km/h 87 % 0 mm 0 W/m2
19:50 7.9 °C 5.9 °C 1024.9 hPa WSW 8 km/h 8 km/h 87 % 0 mm 0 W/m2
19:55 7.9 °C 5.9 °C 1024.9 hPa WSW 6.4 km/h 19.3 km/h 87 % 0 mm 0 W/m2
20:00 7.9 °C 5.8 °C 1024.9 hPa WSW 4.8 km/h 4.8 km/h 87 % 0 mm 0 W/m2
20:10 7.9 °C 6 °C 1024.9 hPa West 11.3 km/h 11.3 km/h 88 % 0 mm 0 W/m2
20:15 7.9 °C 6 °C 1024.9 hPa WSW 12.9 km/h 19.3 km/h 88 % 0 mm 0 W/m2
20:25 7.8 °C 6.1 °C 1024.6 hPa West 12.9 km/h 17.7 km/h 89 % 0 mm 0 W/m2
20:30 7.8 °C 6.1 °C 1024.6 hPa WNW 14.5 km/h 19.3 km/h 89 % 0 mm 0 W/m2
20:35 7.8 °C 6.1 °C 1024.6 hPa WNW 17.7 km/h 19.3 km/h 89 % 0 mm 0 W/m2
20:45 7.8 °C 6.1 °C 1024.9 hPa WSW 14.5 km/h 19.3 km/h 89 % 0 mm 0 W/m2
20:50 7.8 °C 6.1 °C 1024.9 hPa West 12.9 km/h 19.3 km/h 89 % 0 mm 0 W/m2
20:55 7.9 °C 6.2 °C 1024.6 hPa West 14.5 km/h 19.3 km/h 89 % 0 mm 0 W/m2
21:05 7.9 °C 6.1 °C 1024.9 hPa WNW 16.1 km/h 16.1 km/h 88 % 0 mm 0 W/m2
21:10 8 °C 6.1 °C 1024.9 hPa West 16.1 km/h 19.3 km/h 88 % 0 mm 0 W/m2
21:15 8.1 °C 6 °C 1024.9 hPa West 16.1 km/h 19.3 km/h 87 % 0 mm 0 W/m2
21:20 8.1 °C 6 °C 1024.9 hPa West 16.1 km/h 16.1 km/h 87 % 0 mm 0 W/m2
21:30 8.1 °C 6.1 °C 1024.6 hPa WNW 16.1 km/h 16.1 km/h 87 % 0 mm 0 W/m2
21:40 8.2 °C 6.1 °C 1024.6 hPa WNW 16.1 km/h 16.1 km/h 87 % 0 mm 0 W/m2
21:45 8.2 °C 6.2 °C 1024.9 hPa West 16.1 km/h 19.3 km/h 87 % 0 mm 0 W/m2
21:50 8.2 °C 6.2 °C 1024.9 hPa West 14.5 km/h 14.5 km/h 87 % 0 mm 0 W/m2
21:55 8.2 °C 6.3 °C 1024.9 hPa West 14.5 km/h 16.1 km/h 88 % 0 mm 0 W/m2
22:05 8.2 °C 6.3 °C 1025.3 hPa West 11.3 km/h 19.3 km/h 88 % 0 mm 0 W/m2
22:10 8.1 °C 6.4 °C 1025.3 hPa WNW 9.7 km/h 9.7 km/h 89 % 0 mm 0 W/m2
22:15 8.1 °C 6.4 °C 1025.3 hPa West 8 km/h 19.3 km/h 89 % 0 mm 0 W/m2
22:25 8.1 °C 6.4 °C 1025.3 hPa WSW 8 km/h 19.3 km/h 89 % 0 mm 0 W/m2
22:35 8.1 °C 6.4 °C 1025.3 hPa WNW 11.3 km/h 19.3 km/h 89 % 0 mm 0 W/m2
22:40 8.1 °C 6.6 °C 1025.3 hPa West 9.7 km/h 19.3 km/h 90 % 0 mm 0 W/m2
22:45 8.1 °C 6.6 °C 1025.3 hPa WNW 9.7 km/h 19.3 km/h 90 % 0 mm 0 W/m2
22:55 8.1 °C 6.5 °C 1025.3 hPa West 9.7 km/h 19.3 km/h 90 % 0 mm 0 W/m2
23:00 8.1 °C 6.5 °C 1025.3 hPa West 8 km/h 8 km/h 90 % 0 mm 0 W/m2
23:05 8.1 °C 6.5 °C 1025.3 hPa West 9.7 km/h 9.7 km/h 90 % 0 mm 0 W/m2
23:15 8.1 °C 6.5 °C 1025.3 hPa WNW 8 km/h 16.1 km/h 90 % 0 mm 0 W/m2
23:20 8.1 °C 6.5 °C 1025.3 hPa West 9.7 km/h 19.3 km/h 90 % 0 mm 0 W/m2
23:25 8.1 °C 6.5 °C 1025.3 hPa West 9.7 km/h 19.3 km/h 90 % 0 mm 0 W/m2
23:30 8.1 °C 6.6 °C 1024.9 hPa West 9.7 km/h 9.7 km/h 90 % 0 mm 0 W/m2
23:40 8.1 °C 6.5 °C 1024.9 hPa West 6.4 km/h 19.3 km/h 90 % 0 mm 0 W/m2
23:45 8.1 °C 6.5 °C 1024.9 hPa West 6.4 km/h 19.3 km/h 90 % 0 mm 0 W/m2
23:50 8.1 °C 6.5 °C 1025.3 hPa WSW 8 km/h 19.3 km/h 90 % 0 mm 0 W/m2
23:55 8.1 °C 6.5 °C 1025.3 hPa West 8 km/h 19.3 km/h 90 % 0 mm 0 W/m2
Delerius-Weather
Compliments of Weather Underground - 1.75 mb

Data updates at regular intervals.